sensor_id;sensor_type;location;lat;lon;timestamp;pressure;altitude;pressure_sealevel;temperature;humidity
18527;BME280;9393;42.158;24.748;2023-04-01T00:01:59;98732.56;;;15.15;58.69
18527;BME280;9393;42.158;24.748;2023-04-01T00:05:04;98729.13;;;14.93;59.36
18527;BME280;9393;42.158;24.748;2023-04-01T00:08:08;98716.78;;;14.66;60.81
18527;BME280;9393;42.158;24.748;2023-04-01T00:11:14;98715.19;;;14.65;61.09
18527;BME280;9393;42.158;24.748;2023-04-01T00:14:21;98719.03;;;14.48;61.52
18527;BME280;9393;42.158;24.748;2023-04-01T00:17:25;98719.97;;;14.61;60.78
18527;BME280;9393;42.158;24.748;2023-04-01T00:20:29;98726.84;;;14.62;61.09
18527;BME280;9393;42.158;24.748;2023-04-01T00:23:33;98725.28;;;14.68;60.75
18527;BME280;9393;42.158;24.748;2023-04-01T00:26:38;98740.50;;;14.79;60.35
18527;BME280;9393;42.158;24.748;2023-04-01T00:29:44;98728.31;;;14.93;59.75
18527;BME280;9393;42.158;24.748;2023-04-01T00:32:51;98726.00;;;15.04;59.39
18527;BME280;9393;42.158;24.748;2023-04-01T00:35:55;98727.00;;;15.03;59.60
18527;BME280;9393;42.158;24.748;2023-04-01T00:38:59;98733.22;;;14.53;61.51
18527;BME280;9393;42.158;24.748;2023-04-01T00:42:04;98736.94;;;14.65;61.11
18527;BME280;9393;42.158;24.748;2023-04-01T00:45:30;98735.63;;;14.76;60.19
18527;BME280;9393;42.158;24.748;2023-04-01T00:48:37;98720.59;;;14.85;59.68
18527;BME280;9393;42.158;24.748;2023-04-01T00:51:43;98728.41;;;14.99;58.56
18527;BME280;9393;42.158;24.748;2023-04-01T00:54:54;98723.44;;;14.90;59.22
18527;BME280;9393;42.158;24.748;2023-04-01T00:58:02;98728.75;;;14.96;58.40
18527;BME280;9393;42.158;24.748;2023-04-01T01:01:08;98720.03;;;14.68;59.48
18527;BME280;9393;42.158;24.748;2023-04-01T01:04:22;98715.41;;;14.49;59.96
18527;BME280;9393;42.158;24.748;2023-04-01T01:07:34;98714.13;;;14.09;61.64
18527;BME280;9393;42.158;24.748;2023-04-01T01:14:51;98730.16;;;14.71;59.76
18527;BME280;9393;42.158;24.748;2023-04-01T01:18:01;98720.13;;;14.24;61.14
18527;BME280;9393;42.158;24.748;2023-04-01T01:21:33;98724.25;;;13.97;61.96
18527;BME280;9393;42.158;24.748;2023-04-01T01:24:55;98725.22;;;14.61;59.47
18527;BME280;9393;42.158;24.748;2023-04-01T01:28:25;98724.34;;;14.54;59.63
18527;BME280;9393;42.158;24.748;2023-04-01T01:31:34;98714.03;;;14.74;58.87
18527;BME280;9393;42.158;24.748;2023-04-01T01:34:46;98710.22;;;14.77;58.83
18527;BME280;9393;42.158;24.748;2023-04-01T01:37:55;98707.09;;;14.66;59.04
18527;BME280;9393;42.158;24.748;2023-04-01T01:41:01;98700.28;;;14.72;59.50
18527;BME280;9393;42.158;24.748;2023-04-01T01:44:08;98703.19;;;14.41;61.05
18527;BME280;9393;42.158;24.748;2023-04-01T01:47:14;98699.69;;;14.34;60.85
18527;BME280;9393;42.158;24.748;2023-04-01T01:50:20;98687.59;;;13.09;64.96
18527;BME280;9393;42.158;24.748;2023-04-01T01:53:26;98678.38;;;13.28;64.23
18527;BME280;9393;42.158;24.748;2023-04-01T01:56:30;98673.72;;;13.24;64.87
18527;BME280;9393;42.158;24.748;2023-04-01T01:59:38;98674.78;;;13.29;64.79
18527;BME280;9393;42.158;24.748;2023-04-01T02:02:46;98658.31;;;13.79;62.87
18527;BME280;9393;42.158;24.748;2023-04-01T02:05:53;98662.34;;;13.96;61.68
18527;BME280;9393;42.158;24.748;2023-04-01T02:09:02;98662.09;;;13.91;62.68
18527;BME280;9393;42.158;24.748;2023-04-01T02:12:08;98655.81;;;13.71;64.00
18527;BME280;9393;42.158;24.748;2023-04-01T02:15:17;98669.19;;;13.61;65.02
18527;BME280;9393;42.158;24.748;2023-04-01T02:18:24;98670.19;;;13.46;65.54
18527;BME280;9393;42.158;24.748;2023-04-01T02:21:31;98674.75;;;13.73;64.60
18527;BME280;9393;42.158;24.748;2023-04-01T02:24:37;98688.59;;;13.82;64.36
18527;BME280;9393;42.158;24.748;2023-04-01T02:27:43;98690.47;;;14.02;63.61
18527;BME280;9393;42.158;24.748;2023-04-01T02:30:48;98687.31;;;13.92;63.89
18527;BME280;9393;42.158;24.748;2023-04-01T02:33:53;98683.34;;;13.82;64.26
18527;BME280;9393;42.158;24.748;2023-04-01T02:36:58;98659.16;;;13.50;64.85
18527;BME280;9393;42.158;24.748;2023-04-01T02:40:05;98654.97;;;13.85;63.59
18527;BME280;9393;42.158;24.748;2023-04-01T02:43:09;98651.66;;;13.62;64.96
18527;BME280;9393;42.158;24.748;2023-04-01T02:46:13;98667.03;;;13.65;65.04
18527;BME280;9393;42.158;24.748;2023-04-01T02:49:16;98672.88;;;13.38;66.08
18527;BME280;9393;42.158;24.748;2023-04-01T02:52:20;98668.72;;;13.73;64.26
18527;BME280;9393;42.158;24.748;2023-04-01T02:55:25;98660.00;;;13.51;65.37
18527;BME280;9393;42.158;24.748;2023-04-01T02:58:29;98657.00;;;13.54;65.32
18527;BME280;9393;42.158;24.748;2023-04-01T03:01:33;98654.09;;;13.78;64.26
18527;BME280;9393;42.158;24.748;2023-04-01T03:04:36;98650.22;;;13.59;64.72
18527;BME280;9393;42.158;24.748;2023-04-01T03:07:40;98647.38;;;13.02;67.13
18527;BME280;9393;42.158;24.748;2023-04-01T03:10:45;98654.19;;;12.74;67.49
18527;BME280;9393;42.158;24.748;2023-04-01T03:13:49;98652.06;;;13.07;66.02
18527;BME280;9393;42.158;24.748;2023-04-01T03:16:54;98665.47;;;13.12;65.54
18527;BME280;9393;42.158;24.748;2023-04-01T03:19:58;98669.47;;;12.85;66.56
18527;BME280;9393;42.158;24.748;2023-04-01T03:23:02;98654.22;;;13.03;65.78
18527;BME280;9393;42.158;24.748;2023-04-01T03:26:07;98639.59;;;12.94;66.20
18527;BME280;9393;42.158;24.748;2023-04-01T03:29:11;98638.19;;;12.54;68.00
18527;BME280;9393;42.158;24.748;2023-04-01T03:32:14;98637.53;;;12.30;68.97
18527;BME280;9393;42.158;24.748;2023-04-01T03:35:18;98653.06;;;12.54;67.89
18527;BME280;9393;42.158;24.748;2023-04-01T03:38:22;98631.44;;;12.37;68.44
18527;BME280;9393;42.158;24.748;2023-04-01T03:41:27;98627.31;;;12.20;69.39
18527;BME280;9393;42.158;24.748;2023-04-01T03:44:34;98618.66;;;12.42;68.19
18527;BME280;9393;42.158;24.748;2023-04-01T03:47:38;98624.47;;;12.30;68.53
18527;BME280;9393;42.158;24.748;2023-04-01T03:50:43;98630.13;;;12.56;67.58
18527;BME280;9393;42.158;24.748;2023-04-01T03:53:47;98627.81;;;12.61;66.84
18527;BME280;9393;42.158;24.748;2023-04-01T03:56:53;98618.84;;;12.41;67.24
18527;BME280;9393;42.158;24.748;2023-04-01T03:59:57;98618.44;;;12.29;67.54
18527;BME280;9393;42.158;24.748;2023-04-01T04:03:01;98613.31;;;12.36;67.23
18527;BME280;9393;42.158;24.748;2023-04-01T04:06:11;98612.72;;;12.48;66.94
18527;BME280;9393;42.158;24.748;2023-04-01T04:09:15;98617.34;;;12.61;66.56
18527;BME280;9393;42.158;24.748;2023-04-01T04:12:20;98617.88;;;12.56;66.71
18527;BME280;9393;42.158;24.748;2023-04-01T04:15:24;98611.16;;;12.77;66.26
18527;BME280;9393;42.158;24.748;2023-04-01T04:18:27;98609.19;;;12.79;66.16
18527;BME280;9393;42.158;24.748;2023-04-01T04:21:31;98607.94;;;12.89;65.66
18527;BME280;9393;42.158;24.748;2023-04-01T04:24:35;98619.56;;;13.01;65.27
18527;BME280;9393;42.158;24.748;2023-04-01T04:27:47;98623.69;;;13.33;64.17
18527;BME280;9393;42.158;24.748;2023-04-01T04:30:51;98625.88;;;13.07;65.74
18527;BME280;9393;42.158;24.748;2023-04-01T04:33:55;98617.59;;;13.03;65.91
18527;BME280;9393;42.158;24.748;2023-04-01T04:36:59;98608.94;;;13.03;65.73
18527;BME280;9393;42.158;24.748;2023-04-01T04:40:08;98625.03;;;13.29;65.00
18527;BME280;9393;42.158;24.748;2023-04-01T04:43:14;98627.47;;;13.45;65.01
18527;BME280;9393;42.158;24.748;2023-04-01T04:46:18;98629.81;;;13.40;65.11
18527;BME280;9393;42.158;24.748;2023-04-01T04:49:26;98625.84;;;13.44;65.08
18527;BME280;9393;42.158;24.748;2023-04-01T04:52:30;98629.91;;;13.32;65.94
18527;BME280;9393;42.158;24.748;2023-04-01T04:55:34;98629.81;;;13.40;65.54
18527;BME280;9393;42.158;24.748;2023-04-01T04:58:54;98632.09;;;13.43;65.68
18527;BME280;9393;42.158;24.748;2023-04-01T05:02:03;98624.13;;;13.37;66.19
18527;BME280;9393;42.158;24.748;2023-04-01T05:05:08;98626.94;;;13.50;65.78
18527;BME280;9393;42.158;24.748;2023-04-01T05:08:12;98624.97;;;13.73;64.94
18527;BME280;9393;42.158;24.748;2023-04-01T05:11:18;98622.00;;;13.76;64.81
18527;BME280;9393;42.158;24.748;2023-04-01T05:14:31;98629.16;;;14.03;63.91
18527;BME280;9393;42.158;24.748;2023-04-01T05:17:42;98624.63;;;13.76;64.29
18527;BME280;9393;42.158;24.748;2023-04-01T05:20:47;98622.22;;;13.96;63.42
18527;BME280;9393;42.158;24.748;2023-04-01T05:23:52;98610.78;;;13.82;63.63
18527;BME280;9393;42.158;24.748;2023-04-01T05:26:57;98612.34;;;13.77;63.75
18527;BME280;9393;42.158;24.748;2023-04-01T05:30:05;98612.91;;;13.72;63.93
18527;BME280;9393;42.158;24.748;2023-04-01T05:33:30;98615.09;;;13.39;64.96
18527;BME280;9393;42.158;24.748;2023-04-01T05:36:34;98611.56;;;13.61;64.22
18527;BME280;9393;42.158;24.748;2023-04-01T05:39:38;98607.47;;;13.74;63.76
18527;BME280;9393;42.158;24.748;2023-04-01T05:42:42;98591.63;;;13.46;65.00
18527;BME280;9393;42.158;24.748;2023-04-01T05:45:48;98577.75;;;13.31;65.38
18527;BME280;9393;42.158;24.748;2023-04-01T05:49:15;98570.66;;;13.31;65.76
18527;BME280;9393;42.158;24.748;2023-04-01T05:52:19;98559.28;;;13.39;65.50
18527;BME280;9393;42.158;24.748;2023-04-01T05:55:22;98554.25;;;13.23;66.45
18527;BME280;9393;42.158;24.748;2023-04-01T05:58:27;98574.84;;;13.26;66.28
18527;BME280;9393;42.158;24.748;2023-04-01T06:01:32;98536.28;;;13.05;67.49
18527;BME280;9393;42.158;24.748;2023-04-01T06:04:38;98553.69;;;13.42;66.10
18527;BME280;9393;42.158;24.748;2023-04-01T06:07:44;98538.66;;;13.14;67.31
18527;BME280;9393;42.158;24.748;2023-04-01T06:10:59;98558.22;;;13.48;65.95
18527;BME280;9393;42.158;24.748;2023-04-01T06:14:19;98547.63;;;13.77;65.25
18527;BME280;9393;42.158;24.748;2023-04-01T06:17:43;98515.72;;;13.52;66.66
18527;BME280;9393;42.158;24.748;2023-04-01T06:20:55;98514.19;;;13.79;65.65
18527;BME280;9393;42.158;24.748;2023-04-01T06:24:13;98519.75;;;13.70;66.50
18527;BME280;9393;42.158;24.748;2023-04-01T06:27:36;98518.47;;;13.65;66.89
18527;BME280;9393;42.158;24.748;2023-04-01T06:30:48;98522.41;;;13.55;67.48
18527;BME280;9393;42.158;24.748;2023-04-01T06:34:19;98538.97;;;13.77;66.42
18527;BME280;9393;42.158;24.748;2023-04-01T06:37:39;98535.50;;;13.55;67.71
18527;BME280;9393;42.158;24.748;2023-04-01T06:40:57;98520.50;;;13.63;67.52
18527;BME280;9393;42.158;24.748;2023-04-01T06:44:16;98523.16;;;13.49;68.44
18527;BME280;9393;42.158;24.748;2023-04-01T06:47:53;98521.25;;;14.00;66.61
18527;BME280;9393;42.158;24.748;2023-04-01T06:51:28;98523.34;;;14.11;66.72
18527;BME280;9393;42.158;24.748;2023-04-01T06:54:56;98530.56;;;14.02;66.89
18527;BME280;9393;42.158;24.748;2023-04-01T06:58:36;98534.53;;;14.20;66.59
18527;BME280;9393;42.158;24.748;2023-04-01T07:01:45;98538.38;;;14.73;64.57
18527;BME280;9393;42.158;24.748;2023-04-01T07:04:53;98526.94;;;14.80;64.25
18527;BME280;9393;42.158;24.748;2023-04-01T07:08:02;98527.91;;;14.79;64.59
18527;BME280;9393;42.158;24.748;2023-04-01T07:11:10;98523.56;;;14.93;64.33
18527;BME280;9393;42.158;24.748;2023-04-01T07:14:37;98499.25;;;14.78;64.85
18527;BME280;9393;42.158;24.748;2023-04-01T07:17:44;98499.13;;;14.86;64.91
18527;BME280;9393;42.158;24.748;2023-04-01T07:20:49;98496.16;;;15.02;64.61
18527;BME280;9393;42.158;24.748;2023-04-01T07:24:03;98492.78;;;15.21;64.12
18527;BME280;9393;42.158;24.748;2023-04-01T07:27:17;98488.19;;;15.30;63.89
18527;BME280;9393;42.158;24.748;2023-04-01T07:30:22;98485.72;;;15.22;64.15
18527;BME280;9393;42.158;24.748;2023-04-01T07:33:33;98480.84;;;14.71;66.33
18527;BME280;9393;42.158;24.748;2023-04-01T07:36:43;98476.50;;;14.85;65.76
18527;BME280;9393;42.158;24.748;2023-04-01T07:39:57;98475.53;;;14.92;65.65
18527;BME280;9393;42.158;24.748;2023-04-01T07:47:08;98481.13;;;15.37;64.88
18527;BME280;9393;42.158;24.748;2023-04-01T07:50:20;98471.78;;;15.21;65.41
18527;BME280;9393;42.158;24.748;2023-04-01T07:53:36;98473.59;;;15.21;65.18
18527;BME280;9393;42.158;24.748;2023-04-01T07:56:47;98475.69;;;15.45;63.84
18527;BME280;9393;42.158;24.748;2023-04-01T08:00:06;98477.59;;;15.71;62.98
18527;BME280;9393;42.158;24.748;2023-04-01T08:03:33;98472.50;;;14.95;65.75
18527;BME280;9393;42.158;24.748;2023-04-01T08:06:46;98460.53;;;14.86;66.32
18527;BME280;9393;42.158;24.748;2023-04-01T08:09:58;98464.94;;;14.79;67.00
18527;BME280;9393;42.158;24.748;2023-04-01T08:13:33;98454.19;;;15.08;65.92
18527;BME280;9393;42.158;24.748;2023-04-01T08:17:02;98450.34;;;15.17;65.88
18527;BME280;9393;42.158;24.748;2023-04-01T08:20:23;98439.28;;;15.22;65.75
18527;BME280;9393;42.158;24.748;2023-04-01T08:23:32;98431.72;;;14.99;66.82
18527;BME280;9393;42.158;24.748;2023-04-01T08:26:40;98427.13;;;15.14;66.17
18527;BME280;9393;42.158;24.748;2023-04-01T08:29:53;98430.41;;;14.76;67.77
18527;BME280;9393;42.158;24.748;2023-04-01T08:33:08;98430.28;;;14.97;66.98
18527;BME280;9393;42.158;24.748;2023-04-01T08:36:18;98423.78;;;14.86;67.49
18527;BME280;9393;42.158;24.748;2023-04-01T08:39:46;98411.78;;;15.18;66.00
18527;BME280;9393;42.158;24.748;2023-04-01T08:43:05;98415.44;;;15.24;65.99
18527;BME280;9393;42.158;24.748;2023-04-01T08:46:18;98404.16;;;15.36;65.43
18527;BME280;9393;42.158;24.748;2023-04-01T08:49:44;98395.69;;;15.41;65.49
18527;BME280;9393;42.158;24.748;2023-04-01T08:53:17;98391.19;;;15.35;65.39
18527;BME280;9393;42.158;24.748;2023-04-01T08:56:28;98379.03;;;15.14;66.43
18527;BME280;9393;42.158;24.748;2023-04-01T08:59:53;98374.06;;;15.58;65.43
18527;BME280;9393;42.158;24.748;2023-04-01T09:03:37;98372.47;;;15.64;64.30
18527;BME280;9393;42.158;24.748;2023-04-01T09:06:55;98364.59;;;15.77;64.20
18527;BME280;9393;42.158;24.748;2023-04-01T09:10:24;98352.66;;;15.81;64.27
18527;BME280;9393;42.158;24.748;2023-04-01T09:13:52;98344.31;;;16.04;63.20
18527;BME280;9393;42.158;24.748;2023-04-01T09:17:21;98336.47;;;15.91;63.71
18527;BME280;9393;42.158;24.748;2023-04-01T09:20:51;98318.91;;;15.78;63.99
18527;BME280;9393;42.158;24.748;2023-04-01T09:24:34;98319.50;;;15.67;64.48
18527;BME280;9393;42.158;24.748;2023-04-01T09:27:45;98317.25;;;15.90;64.01
18527;BME280;9393;42.158;24.748;2023-04-01T09:31:17;98308.53;;;16.03;63.37
18527;BME280;9393;42.158;24.748;2023-04-01T09:34:54;98306.72;;;15.97;63.74
18527;BME280;9393;42.158;24.748;2023-04-01T09:38:15;98293.56;;;16.03;63.46
18527;BME280;9393;42.158;24.748;2023-04-01T09:41:29;98301.78;;;16.33;62.51
18527;BME280;9393;42.158;24.748;2023-04-01T09:44:52;98297.31;;;16.34;62.70
18527;BME280;9393;42.158;24.748;2023-04-01T09:48:12;98299.38;;;16.18;63.25
18527;BME280;9393;42.158;24.748;2023-04-01T09:51:27;98301.19;;;16.76;61.34
18527;BME280;9393;42.158;24.748;2023-04-01T09:55:00;98297.34;;;16.78;61.34
18527;BME280;9393;42.158;24.748;2023-04-01T09:58:33;98292.84;;;16.85;60.73
18527;BME280;9393;42.158;24.748;2023-04-01T10:13:57;98242.66;;;17.54;58.44
18527;BME280;9393;42.158;24.748;2023-04-01T10:17:34;98241.81;;;17.60;58.31
18527;BME280;9393;42.158;24.748;2023-04-01T10:20:59;98237.59;;;17.03;59.95
18527;BME280;9393;42.158;24.748;2023-04-01T10:43:33;98188.28;;;17.60;58.66
18527;BME280;9393;42.158;24.748;2023-04-01T10:51:25;98132.19;;;17.71;58.38
18527;BME280;9393;42.158;24.748;2023-04-01T10:54:45;98117.97;;;17.54;59.27
18527;BME280;9393;42.158;24.748;2023-04-01T10:58:50;98115.38;;;18.02;57.90
18527;BME280;9393;42.158;24.748;2023-04-01T11:07:01;98110.84;;;18.21;58.02
18527;BME280;9393;42.158;24.748;2023-04-01T11:10:44;98112.72;;;18.73;56.08
18527;BME280;9393;42.158;24.748;2023-04-01T11:14:26;98105.25;;;18.70;55.93
18527;BME280;9393;42.158;24.748;2023-04-01T11:18:17;98093.66;;;19.41;54.44
18527;BME280;9393;42.158;24.748;2023-04-01T11:25:41;98078.28;;;20.23;51.48
18527;BME280;9393;42.158;24.748;2023-04-01T11:33:12;98078.47;;;20.66;50.32
18527;BME280;9393;42.158;24.748;2023-04-01T11:36:33;98066.28;;;20.82;50.46
18527;BME280;9393;42.158;24.748;2023-04-01T11:39:51;98060.38;;;21.35;49.69
18527;BME280;9393;42.158;24.748;2023-04-01T11:43:36;98043.44;;;22.06;47.71
18527;BME280;9393;42.158;24.748;2023-04-01T11:47:43;98036.81;;;22.08;47.58
18527;BME280;9393;42.158;24.748;2023-04-01T11:51:04;98037.97;;;21.91;48.10
18527;BME280;9393;42.158;24.748;2023-04-01T11:54:34;98032.66;;;21.91;48.12
18527;BME280;9393;42.158;24.748;2023-04-01T11:57:50;98042.66;;;20.80;50.71
18527;BME280;9393;42.158;24.748;2023-04-01T12:01:21;98055.22;;;20.68;51.53
18527;BME280;9393;42.158;24.748;2023-04-01T12:08:10;98029.41;;;20.13;53.20
18527;BME280;9393;42.158;24.748;2023-04-01T12:11:25;98032.06;;;20.13;53.42
18527;BME280;9393;42.158;24.748;2023-04-01T12:14:41;98027.56;;;20.14;53.67
18527;BME280;9393;42.158;24.748;2023-04-01T12:17:50;98009.47;;;19.78;54.53
18527;BME280;9393;42.158;24.748;2023-04-01T12:21:03;98008.06;;;19.58;55.49
18527;BME280;9393;42.158;24.748;2023-04-01T12:24:40;97976.06;;;19.72;55.01
18527;BME280;9393;42.158;24.748;2023-04-01T12:27:57;97970.97;;;20.32;53.61
18527;BME280;9393;42.158;24.748;2023-04-01T12:31:11;97957.69;;;21.25;51.15
18527;BME280;9393;42.158;24.748;2023-04-01T12:34:41;97956.03;;;21.46;50.24
18527;BME280;9393;42.158;24.748;2023-04-01T12:37:59;97952.63;;;21.24;50.46
18527;BME280;9393;42.158;24.748;2023-04-01T12:41:15;97942.34;;;20.67;51.86
18527;BME280;9393;42.158;24.748;2023-04-01T12:44:39;97945.94;;;20.78;52.25
18527;BME280;9393;42.158;24.748;2023-04-01T12:48:03;97933.38;;;20.51;53.08
18527;BME280;9393;42.158;24.748;2023-04-01T12:51:22;97934.06;;;20.25;53.99
18527;BME280;9393;42.158;24.748;2023-04-01T12:58:55;97936.13;;;19.90;55.46
18527;BME280;9393;42.158;24.748;2023-04-01T13:02:11;97925.16;;;19.81;55.51
18527;BME280;9393;42.158;24.748;2023-04-01T13:05:45;97933.31;;;19.63;55.88
18527;BME280;9393;42.158;24.748;2023-04-01T13:09:02;97926.28;;;19.85;54.96
18527;BME280;9393;42.158;24.748;2023-04-01T13:12:36;97895.84;;;20.54;53.11
18527;BME280;9393;42.158;24.748;2023-04-01T13:15:47;97915.31;;;20.87;51.52
18527;BME280;9393;42.158;24.748;2023-04-01T13:18:59;97917.56;;;21.17;50.39
18527;BME280;9393;42.158;24.748;2023-04-01T13:22:14;97917.00;;;20.71;50.84
18527;BME280;9393;42.158;24.748;2023-04-01T13:25:24;97919.97;;;20.03;52.08
18527;BME280;9393;42.158;24.748;2023-04-01T13:28:38;97925.22;;;19.70;53.17
18527;BME280;9393;42.158;24.748;2023-04-01T13:32:02;97968.41;;;19.18;54.62
18527;BME280;9393;42.158;24.748;2023-04-01T13:35:18;98040.81;;;18.83;55.39
18527;BME280;9393;42.158;24.748;2023-04-01T13:38:51;98053.13;;;18.24;57.10
18527;BME280;9393;42.158;24.748;2023-04-01T13:42:16;98060.78;;;18.02;57.95
18527;BME280;9393;42.158;24.748;2023-04-01T13:45:24;98065.44;;;17.89;58.25
18527;BME280;9393;42.158;24.748;2023-04-01T13:55:54;98139.66;;;17.56;60.69
18527;BME280;9393;42.158;24.748;2023-04-01T13:59:15;98153.03;;;17.36;61.59
18527;BME280;9393;42.158;24.748;2023-04-01T14:02:49;98176.25;;;17.21;62.47
18527;BME280;9393;42.158;24.748;2023-04-01T14:06:13;98185.09;;;17.08;65.53
18527;BME280;9393;42.158;24.748;2023-04-01T14:13:13;98179.63;;;16.85;68.29
18527;BME280;9393;42.158;24.748;2023-04-01T14:21:04;98196.31;;;17.47;66.49
18527;BME280;9393;42.158;24.748;2023-04-01T14:24:36;98183.94;;;17.65;65.08
18527;BME280;9393;42.158;24.748;2023-04-01T14:27:56;98175.94;;;18.27;62.50
18527;BME280;9393;42.158;24.748;2023-04-01T14:31:27;98155.66;;;18.09;62.03
18527;BME280;9393;42.158;24.748;2023-04-01T14:34:52;98155.47;;;17.74;63.00
18527;BME280;9393;42.158;24.748;2023-04-01T14:38:14;98147.84;;;17.48;63.78
18527;BME280;9393;42.158;24.748;2023-04-01T14:41:34;98135.81;;;17.52;63.96
18527;BME280;9393;42.158;24.748;2023-04-01T14:44:56;98126.81;;;17.41;64.38
18527;BME280;9393;42.158;24.748;2023-04-01T14:48:15;98121.63;;;17.16;65.17
18527;BME280;9393;42.158;24.748;2023-04-01T14:51:23;98128.84;;;17.21;66.21
18527;BME280;9393;42.158;24.748;2023-04-01T14:54:35;98126.22;;;17.03;67.57
18527;BME280;9393;42.158;24.748;2023-04-01T14:57:41;98122.03;;;16.95;69.09
18527;BME280;9393;42.158;24.748;2023-04-01T15:01:06;98137.75;;;16.77;71.14
18527;BME280;9393;42.158;24.748;2023-04-01T15:04:28;98128.25;;;16.76;72.95
18527;BME280;9393;42.158;24.748;2023-04-01T15:08:05;98120.25;;;16.64;72.04
18527;BME280;9393;42.158;24.748;2023-04-01T15:11:36;98116.25;;;16.55;72.62
18527;BME280;9393;42.158;24.748;2023-04-01T15:14:56;98122.28;;;16.62;72.55
18527;BME280;9393;42.158;24.748;2023-04-01T15:18:08;98114.31;;;16.38;73.52
18527;BME280;9393;42.158;24.748;2023-04-01T15:21:26;98123.75;;;16.27;74.51
18527;BME280;9393;42.158;24.748;2023-04-01T15:24:46;98131.25;;;16.48;74.03
18527;BME280;9393;42.158;24.748;2023-04-01T15:27:54;98120.34;;;16.20;74.42
18527;BME280;9393;42.158;24.748;2023-04-01T15:31:07;98110.06;;;16.12;73.63
18527;BME280;9393;42.158;24.748;2023-04-01T15:34:26;98101.75;;;16.15;73.46
18527;BME280;9393;42.158;24.748;2023-04-01T15:37:49;98090.75;;;16.25;73.15
18527;BME280;9393;42.158;24.748;2023-04-01T15:41:04;98103.03;;;16.06;74.27
18527;BME280;9393;42.158;24.748;2023-04-01T15:44:42;98108.91;;;16.01;74.61
18527;BME280;9393;42.158;24.748;2023-04-01T15:47:58;98096.69;;;16.13;74.32
18527;BME280;9393;42.158;24.748;2023-04-01T15:51:12;98098.31;;;16.14;74.21
18527;BME280;9393;42.158;24.748;2023-04-01T15:54:46;98092.38;;;16.26;73.79
18527;BME280;9393;42.158;24.748;2023-04-01T15:58:11;98083.13;;;16.16;73.96
18527;BME280;9393;42.158;24.748;2023-04-01T16:01:34;98096.25;;;16.23;73.72
18527;BME280;9393;42.158;24.748;2023-04-01T16:04:54;98106.47;;;16.00;75.10
18527;BME280;9393;42.158;24.748;2023-04-01T16:08:22;98105.19;;;16.15;74.20
18527;BME280;9393;42.158;24.748;2023-04-01T16:11:40;98118.91;;;16.17;74.10
18527;BME280;9393;42.158;24.748;2023-04-01T16:14:56;98134.78;;;16.04;74.56
18527;BME280;9393;42.158;24.748;2023-04-01T16:18:13;98135.53;;;16.11;73.47
18527;BME280;9393;42.158;24.748;2023-04-01T16:21:36;98148.16;;;16.03;73.72
18527;BME280;9393;42.158;24.748;2023-04-01T16:24:44;98158.97;;;16.20;72.85
18527;BME280;9393;42.158;24.748;2023-04-01T16:27:54;98155.81;;;16.04;72.26
18527;BME280;9393;42.158;24.748;2023-04-01T16:31:04;98166.59;;;15.90;72.93
18527;BME280;9393;42.158;24.748;2023-04-01T16:34:15;98170.03;;;15.90;73.29
18527;BME280;9393;42.158;24.748;2023-04-01T16:37:29;98176.50;;;15.94;72.94
18527;BME280;9393;42.158;24.748;2023-04-01T16:40:43;98178.97;;;15.76;73.36
18527;BME280;9393;42.158;24.748;2023-04-01T16:43:50;98195.56;;;15.77;72.45
18527;BME280;9393;42.158;24.748;2023-04-01T16:46:59;98200.47;;;15.47;74.01
18527;BME280;9393;42.158;24.748;2023-04-01T16:50:15;98201.28;;;15.41;74.21
18527;BME280;9393;42.158;24.748;2023-04-01T16:53:36;98187.56;;;15.26;74.22
18527;BME280;9393;42.158;24.748;2023-04-01T16:56:48;98192.81;;;15.19;76.82
18527;BME280;9393;42.158;24.748;2023-04-01T17:00:03;98172.41;;;15.14;79.40
18527;BME280;9393;42.158;24.748;2023-04-01T17:03:12;98164.16;;;14.91;80.75
18527;BME280;9393;42.158;24.748;2023-04-01T17:06:27;98154.66;;;14.77;81.22
18527;BME280;9393;42.158;24.748;2023-04-01T17:09:47;98119.56;;;14.78;82.03
18527;BME280;9393;42.158;24.748;2023-04-01T17:13:09;98128.22;;;14.98;81.37
18527;BME280;9393;42.158;24.748;2023-04-01T17:16:31;98116.66;;;15.26;79.73
18527;BME280;9393;42.158;24.748;2023-04-01T17:19:52;98122.88;;;15.31;79.60
18527;BME280;9393;42.158;24.748;2023-04-01T17:23:03;98134.78;;;15.53;79.05
18527;BME280;9393;42.158;24.748;2023-04-01T17:26:28;98138.00;;;15.55;79.10
18527;BME280;9393;42.158;24.748;2023-04-01T17:29:43;98150.47;;;15.73;76.95
18527;BME280;9393;42.158;24.748;2023-04-01T17:32:58;98159.53;;;15.84;76.46
18527;BME280;9393;42.158;24.748;2023-04-01T17:36:21;98167.66;;;15.82;76.52
18527;BME280;9393;42.158;24.748;2023-04-01T17:39:45;98172.91;;;15.82;76.93
18527;BME280;9393;42.158;24.748;2023-04-01T17:42:58;98189.63;;;15.94;76.01
18527;BME280;9393;42.158;24.748;2023-04-01T17:46:20;98213.88;;;15.96;75.92
18527;BME280;9393;42.158;24.748;2023-04-01T17:49:31;98318.69;;;15.66;78.92
18527;BME280;9393;42.158;24.748;2023-04-01T17:52:42;98320.09;;;15.23;80.29
18527;BME280;9393;42.158;24.748;2023-04-01T17:55:59;98325.72;;;15.13;76.28
18527;BME280;9393;42.158;24.748;2023-04-01T17:59:17;98340.88;;;15.11;71.58
18527;BME280;9393;42.158;24.748;2023-04-01T18:02:33;98349.56;;;15.05;69.39
18527;BME280;9393;42.158;24.748;2023-04-01T18:05:59;98358.84;;;15.08;67.25
18527;BME280;9393;42.158;24.748;2023-04-01T18:09:14;98365.47;;;14.91;65.80
18527;BME280;9393;42.158;24.748;2023-04-01T18:12:27;98371.53;;;14.98;65.19
18527;BME280;9393;42.158;24.748;2023-04-01T18:15:40;98369.28;;;14.82;65.24
18527;BME280;9393;42.158;24.748;2023-04-01T18:18:53;98377.75;;;14.90;65.37
18527;BME280;9393;42.158;24.748;2023-04-01T18:22:09;98384.38;;;14.80;65.46
18527;BME280;9393;42.158;24.748;2023-04-01T18:25:22;98379.00;;;14.94;65.88
18527;BME280;9393;42.158;24.748;2023-04-01T18:28:36;98364.47;;;14.98;66.03
18527;BME280;9393;42.158;24.748;2023-04-01T18:31:46;98363.25;;;14.94;66.65
18527;BME280;9393;42.158;24.748;2023-04-01T18:34:57;98355.94;;;14.90;66.19